sensor_id;sensor_type;location;lat;lon;timestamp;temperature;humidity
9375;DHT22;4727;51.202;6.344;2022-09-03T00:01:27;19.50;99.90
9375;DHT22;4727;51.202;6.344;2022-09-03T00:04:06;19.50;99.90
9375;DHT22;4727;51.202;6.344;2022-09-03T00:06:42;19.40;99.90
9375;DHT22;4727;51.202;6.344;2022-09-03T00:09:13;19.40;99.90
9375;DHT22;4727;51.202;6.344;2022-09-03T00:11:50;19.40;99.90
9375;DHT22;4727;51.202;6.344;2022-09-03T00:14:24;19.40;99.90
9375;DHT22;4727;51.202;6.344;2022-09-03T00:17:01;19.30;99.90
9375;DHT22;4727;51.202;6.344;2022-09-03T00:19:34;19.30;99.90
9375;DHT22;4727;51.202;6.344;2022-09-03T00:22:20;19.30;99.90
9375;DHT22;4727;51.202;6.344;2022-09-03T00:24:48;19.30;99.90
9375;DHT22;4727;51.202;6.344;2022-09-03T00:27:26;19.30;99.90
9375;DHT22;4727;51.202;6.344;2022-09-03T00:30:03;19.20;99.90
9375;DHT22;4727;51.202;6.344;2022-09-03T00:35:06;19.20;99.90
9375;DHT22;4727;51.202;6.344;2022-09-03T00:37:34;19.20;99.90
9375;DHT22;4727;51.202;6.344;2022-09-03T00:39:59;19.10;99.90
9375;DHT22;4727;51.202;6.344;2022-09-03T00:42:43;19.10;99.90
9375;DHT22;4727;51.202;6.344;2022-09-03T00:51:12;19.10;99.90
9375;DHT22;4727;51.202;6.344;2022-09-03T00:54:01;19.10;99.90
9375;DHT22;4727;51.202;6.344;2022-09-03T01:02:30;19.00;99.90
9375;DHT22;4727;51.202;6.344;2022-09-03T01:07:48;18.90;99.90
9375;DHT22;4727;51.202;6.344;2022-09-03T01:10:35;18.90;99.90
9375;DHT22;4727;51.202;6.344;2022-09-03T01:13:19;18.90;99.90
9375;DHT22;4727;51.202;6.344;2022-09-03T01:22:01;18.90;99.90
9375;DHT22;4727;51.202;6.344;2022-09-03T01:27:29;18.80;99.90
9375;DHT22;4727;51.202;6.344;2022-09-03T01:30:04;18.80;99.90
9375;DHT22;4727;51.202;6.344;2022-09-03T01:37:34;18.60;99.90
9375;DHT22;4727;51.202;6.344;2022-09-03T01:56:16;18.60;99.90
9375;DHT22;4727;51.202;6.344;2022-09-03T01:58:48;18.50;99.90
9375;DHT22;4727;51.202;6.344;2022-09-03T02:01:36;18.50;99.90
9375;DHT22;4727;51.202;6.344;2022-09-03T02:04:15;18.50;99.90
9375;DHT22;4727;51.202;6.344;2022-09-03T02:06:43;18.50;99.90
9375;DHT22;4727;51.202;6.344;2022-09-03T02:09:10;18.50;99.90
9375;DHT22;4727;51.202;6.344;2022-09-03T02:11:36;18.50;99.90
9375;DHT22;4727;51.202;6.344;2022-09-03T02:14:01;18.50;99.90
9375;DHT22;4727;51.202;6.344;2022-09-03T02:16:31;18.50;99.90
9375;DHT22;4727;51.202;6.344;2022-09-03T02:19:08;18.50;99.90
9375;DHT22;4727;51.202;6.344;2022-09-03T02:21:51;18.40;99.90
9375;DHT22;4727;51.202;6.344;2022-09-03T02:24:17;18.50;99.90
9375;DHT22;4727;51.202;6.344;2022-09-03T02:26:43;18.40;99.90
9375;DHT22;4727;51.202;6.344;2022-09-03T02:29:09;18.40;99.90
9375;DHT22;4727;51.202;6.344;2022-09-03T02:31:35;18.40;99.90
9375;DHT22;4727;51.202;6.344;2022-09-03T02:34:01;18.40;99.90
9375;DHT22;4727;51.202;6.344;2022-09-03T02:36:31;18.40;99.90
9375;DHT22;4727;51.202;6.344;2022-09-03T02:38:57;18.40;99.90
9375;DHT22;4727;51.202;6.344;2022-09-03T02:41:23;18.30;99.90
9375;DHT22;4727;51.202;6.344;2022-09-03T02:46:49;18.30;99.90
9375;DHT22;4727;51.202;6.344;2022-09-03T02:49:12;18.30;99.90
9375;DHT22;4727;51.202;6.344;2022-09-03T02:51:41;18.30;99.90
9375;DHT22;4727;51.202;6.344;2022-09-03T02:54:08;18.30;99.90
9375;DHT22;4727;51.202;6.344;2022-09-03T02:56:34;18.20;99.90
9375;DHT22;4727;51.202;6.344;2022-09-03T02:59:01;18.20;99.90
9375;DHT22;4727;51.202;6.344;2022-09-03T03:01:27;18.20;99.90
9375;DHT22;4727;51.202;6.344;2022-09-03T03:03:52;18.20;94.30
9375;DHT22;4727;51.202;6.344;2022-09-03T03:06:18;18.10;92.90
9375;DHT22;4727;51.202;6.344;2022-09-03T03:08:45;18.10;95.00
9375;DHT22;4727;51.202;6.344;2022-09-03T03:11:12;18.10;99.90
9375;DHT22;4727;51.202;6.344;2022-09-03T03:13:39;18.10;97.80
9375;DHT22;4727;51.202;6.344;2022-09-03T03:16:05;18.00;99.90
9375;DHT22;4727;51.202;6.344;2022-09-03T03:18:31;18.00;99.90
9375;DHT22;4727;51.202;6.344;2022-09-03T03:21:04;18.00;99.90
9375;DHT22;4727;51.202;6.344;2022-09-03T03:23:31;18.10;99.90
9375;DHT22;4727;51.202;6.344;2022-09-03T03:26:00;18.10;99.90
9375;DHT22;4727;51.202;6.344;2022-09-03T03:28:27;18.00;99.90
9375;DHT22;4727;51.202;6.344;2022-09-03T03:30:52;18.00;99.90
9375;DHT22;4727;51.202;6.344;2022-09-03T03:33:18;18.00;99.90
9375;DHT22;4727;51.202;6.344;2022-09-03T03:35:43;17.90;99.90
9375;DHT22;4727;51.202;6.344;2022-09-03T03:38:09;17.90;99.90
9375;DHT22;4727;51.202;6.344;2022-09-03T03:40:39;17.80;99.90
9375;DHT22;4727;51.202;6.344;2022-09-03T03:43:05;17.90;99.90
9375;DHT22;4727;51.202;6.344;2022-09-03T03:45:30;17.90;94.90
9375;DHT22;4727;51.202;6.344;2022-09-03T03:47:57;17.90;99.90
9375;DHT22;4727;51.202;6.344;2022-09-03T03:50:23;17.90;28.00
9375;DHT22;4727;51.202;6.344;2022-09-03T03:52:49;17.90;52.70
9375;DHT22;4727;51.202;6.344;2022-09-03T03:55:15;17.90;28.90
9375;DHT22;4727;51.202;6.344;2022-09-03T03:57:40;17.90;79.20
9375;DHT22;4727;51.202;6.344;2022-09-03T04:00:06;17.90;96.70
9375;DHT22;4727;51.202;6.344;2022-09-03T04:02:32;17.90;87.30
9375;DHT22;4727;51.202;6.344;2022-09-03T04:04:58;17.90;53.60
9375;DHT22;4727;51.202;6.344;2022-09-03T04:07:24;17.80;75.00
9375;DHT22;4727;51.202;6.344;2022-09-03T04:09:50;17.80;63.10
9375;DHT22;4727;51.202;6.344;2022-09-03T04:12:15;17.80;42.40
9375;DHT22;4727;51.202;6.344;2022-09-03T04:14:41;17.80;22.90
9375;DHT22;4727;51.202;6.344;2022-09-03T04:17:07;17.80;12.30
9375;DHT22;4727;51.202;6.344;2022-09-03T04:19:32;17.80;32.40
9375;DHT22;4727;51.202;6.344;2022-09-03T04:21:58;17.70;1.10
9375;DHT22;4727;51.202;6.344;2022-09-03T04:24:24;17.70;14.90
9375;DHT22;4727;51.202;6.344;2022-09-03T04:26:49;17.70;13.50
9375;DHT22;4727;51.202;6.344;2022-09-03T04:29:15;17.70;12.70
9375;DHT22;4727;51.202;6.344;2022-09-03T04:31:41;17.70;6.40
9375;DHT22;4727;51.202;6.344;2022-09-03T04:34:29;17.70;11.80
9375;DHT22;4727;51.202;6.344;2022-09-03T04:36:55;17.70;14.40
9375;DHT22;4727;51.202;6.344;2022-09-03T04:39:23;17.70;18.60
9375;DHT22;4727;51.202;6.344;2022-09-03T04:41:49;17.70;9.00
9375;DHT22;4727;51.202;6.344;2022-09-03T04:44:14;17.70;23.70
9375;DHT22;4727;51.202;6.344;2022-09-03T04:46:41;17.70;13.00
9375;DHT22;4727;51.202;6.344;2022-09-03T04:49:06;17.70;4.30
9375;DHT22;4727;51.202;6.344;2022-09-03T04:51:34;17.70;3.80
9375;DHT22;4727;51.202;6.344;2022-09-03T04:54:02;17.90;6.60
9375;DHT22;4727;51.202;6.344;2022-09-03T04:56:33;17.80;1.80
9375;DHT22;4727;51.202;6.344;2022-09-03T04:59:04;17.70;14.90
9375;DHT22;4727;51.202;6.344;2022-09-03T05:01:32;17.70;3.50
9375;DHT22;4727;51.202;6.344;2022-09-03T05:03:59;17.70;3.00
9375;DHT22;4727;51.202;6.344;2022-09-03T05:06:25;17.70;25.50
9375;DHT22;4727;51.202;6.344;2022-09-03T05:08:52;17.70;2.60
9375;DHT22;4727;51.202;6.344;2022-09-03T05:11:19;17.60;5.70
9375;DHT22;4727;51.202;6.344;2022-09-03T05:13:49;17.60;20.90
9375;DHT22;4727;51.202;6.344;2022-09-03T05:16:15;17.60;1.50
9375;DHT22;4727;51.202;6.344;2022-09-03T05:18:41;17.70;3.90
9375;DHT22;4727;51.202;6.344;2022-09-03T05:21:09;17.70;10.80
9375;DHT22;4727;51.202;6.344;2022-09-03T05:23:37;17.60;4.80
9375;DHT22;4727;51.202;6.344;2022-09-03T05:26:05;17.70;1.00
9375;DHT22;4727;51.202;6.344;2022-09-03T05:28:34;17.70;1.00
9375;DHT22;4727;51.202;6.344;2022-09-03T05:31:19;17.70;1.00
9375;DHT22;4727;51.202;6.344;2022-09-03T05:33:51;17.70;1.00
9375;DHT22;4727;51.202;6.344;2022-09-03T05:36:19;17.70;1.00
9375;DHT22;4727;51.202;6.344;2022-09-03T05:38:46;17.70;1.00
9375;DHT22;4727;51.202;6.344;2022-09-03T05:41:13;17.80;1.00
9375;DHT22;4727;51.202;6.344;2022-09-03T05:43:40;17.80;1.00
9375;DHT22;4727;51.202;6.344;2022-09-03T05:46:11;17.80;1.00
9375;DHT22;4727;51.202;6.344;2022-09-03T05:48:39;17.90;1.00
9375;DHT22;4727;51.202;6.344;2022-09-03T05:51:10;17.80;1.00
9375;DHT22;4727;51.202;6.344;2022-09-03T05:53:38;17.90;1.00
9375;DHT22;4727;51.202;6.344;2022-09-03T05:56:07;17.90;1.00
9375;DHT22;4727;51.202;6.344;2022-09-03T05:58:49;17.90;1.00
9375;DHT22;4727;51.202;6.344;2022-09-03T06:03:42;18.00;1.00
9375;DHT22;4727;51.202;6.344;2022-09-03T06:06:08;18.00;1.00
9375;DHT22;4727;51.202;6.344;2022-09-03T06:08:34;18.00;1.00
9375;DHT22;4727;51.202;6.344;2022-09-03T06:11:02;18.10;1.00
9375;DHT22;4727;51.202;6.344;2022-09-03T06:13:30;18.10;1.00
9375;DHT22;4727;51.202;6.344;2022-09-03T06:16:01;18.00;1.00
9375;DHT22;4727;51.202;6.344;2022-09-03T06:18:27;18.10;1.00
9375;DHT22;4727;51.202;6.344;2022-09-03T06:20:58;18.10;1.00
9375;DHT22;4727;51.202;6.344;2022-09-03T06:23:25;18.20;1.00
9375;DHT22;4727;51.202;6.344;2022-09-03T06:26:04;18.20;1.00
9375;DHT22;4727;51.202;6.344;2022-09-03T06:28:32;18.20;1.00
9375;DHT22;4727;51.202;6.344;2022-09-03T06:31:07;18.20;1.00
9375;DHT22;4727;51.202;6.344;2022-09-03T06:33:36;18.30;1.00
9375;DHT22;4727;51.202;6.344;2022-09-03T06:36:04;18.30;1.00
9375;DHT22;4727;51.202;6.344;2022-09-03T06:38:31;18.30;1.00
9375;DHT22;4727;51.202;6.344;2022-09-03T06:41:01;18.40;1.00
9375;DHT22;4727;51.202;6.344;2022-09-03T06:43:32;18.50;1.00
9375;DHT22;4727;51.202;6.344;2022-09-03T06:46:03;18.80;1.00
9375;DHT22;4727;51.202;6.344;2022-09-03T06:48:31;18.50;1.00
9375;DHT22;4727;51.202;6.344;2022-09-03T06:51:02;18.50;1.00
9375;DHT22;4727;51.202;6.344;2022-09-03T06:53:30;18.60;1.00
9375;DHT22;4727;51.202;6.344;2022-09-03T06:55:58;18.60;1.00
9375;DHT22;4727;51.202;6.344;2022-09-03T06:58:27;18.70;1.00
9375;DHT22;4727;51.202;6.344;2022-09-03T07:00:53;18.70;1.00
9375;DHT22;4727;51.202;6.344;2022-09-03T07:03:19;18.80;1.00
9375;DHT22;4727;51.202;6.344;2022-09-03T07:05:46;18.80;1.00
9375;DHT22;4727;51.202;6.344;2022-09-03T07:08:11;18.80;1.00
9375;DHT22;4727;51.202;6.344;2022-09-03T07:10:37;18.90;1.00
9375;DHT22;4727;51.202;6.344;2022-09-03T07:13:03;19.00;1.00
9375;DHT22;4727;51.202;6.344;2022-09-03T07:15:32;19.10;1.00
9375;DHT22;4727;51.202;6.344;2022-09-03T07:17:58;19.10;1.00
9375;DHT22;4727;51.202;6.344;2022-09-03T07:20:25;19.20;1.00
9375;DHT22;4727;51.202;6.344;2022-09-03T07:22:54;19.30;1.00
9375;DHT22;4727;51.202;6.344;2022-09-03T07:25:20;19.30;1.00
9375;DHT22;4727;51.202;6.344;2022-09-03T07:27:46;19.40;1.00
9375;DHT22;4727;51.202;6.344;2022-09-03T07:30:13;19.50;1.00
9375;DHT22;4727;51.202;6.344;2022-09-03T07:32:38;19.50;1.00
9375;DHT22;4727;51.202;6.344;2022-09-03T07:35:05;19.70;1.00
9375;DHT22;4727;51.202;6.344;2022-09-03T07:37:31;19.70;1.00
9375;DHT22;4727;51.202;6.344;2022-09-03T07:39:58;19.80;1.00
9375;DHT22;4727;51.202;6.344;2022-09-03T07:42:23;19.90;1.00
9375;DHT22;4727;51.202;6.344;2022-09-03T07:44:51;19.90;1.00
9375;DHT22;4727;51.202;6.344;2022-09-03T07:47:17;20.00;1.00
9375;DHT22;4727;51.202;6.344;2022-09-03T07:49:42;20.00;1.00
9375;DHT22;4727;51.202;6.344;2022-09-03T07:52:08;20.10;1.00
9375;DHT22;4727;51.202;6.344;2022-09-03T07:54:34;20.20;1.00
9375;DHT22;4727;51.202;6.344;2022-09-03T07:57:00;20.20;1.00
9375;DHT22;4727;51.202;6.344;2022-09-03T07:59:26;20.30;1.00
9375;DHT22;4727;51.202;6.344;2022-09-03T08:01:51;20.40;1.00
9375;DHT22;4727;51.202;6.344;2022-09-03T08:04:17;20.50;1.00
9375;DHT22;4727;51.202;6.344;2022-09-03T08:06:42;20.60;1.00
9375;DHT22;4727;51.202;6.344;2022-09-03T08:09:10;20.50;1.00
9375;DHT22;4727;51.202;6.344;2022-09-03T08:11:39;20.60;1.00
9375;DHT22;4727;51.202;6.344;2022-09-03T08:14:08;20.70;1.00
9375;DHT22;4727;51.202;6.344;2022-09-03T08:16:36;20.70;16.30
9375;DHT22;4727;51.202;6.344;2022-09-03T08:19:03;20.70;18.20
9375;DHT22;4727;51.202;6.344;2022-09-03T08:21:29;20.80;18.40
9375;DHT22;4727;51.202;6.344;2022-09-03T08:23:56;20.80;21.70
9375;DHT22;4727;51.202;6.344;2022-09-03T08:26:31;20.80;24.80
9375;DHT22;4727;51.202;6.344;2022-09-03T08:28:58;20.90;31.10
9375;DHT22;4727;51.202;6.344;2022-09-03T08:31:24;20.90;37.00
9375;DHT22;4727;51.202;6.344;2022-09-03T08:33:52;20.90;16.20
9375;DHT22;4727;51.202;6.344;2022-09-03T08:36:20;20.90;1.00
9375;DHT22;4727;51.202;6.344;2022-09-03T08:38:50;21.00;1.00
9375;DHT22;4727;51.202;6.344;2022-09-03T08:47:38;21.10;71.00
9375;DHT22;4727;51.202;6.344;2022-09-03T08:50:32;21.20;55.00
9375;DHT22;4727;51.202;6.344;2022-09-03T08:53:17;21.20;59.50
9375;DHT22;4727;51.202;6.344;2022-09-03T08:55:52;21.30;55.70
9375;DHT22;4727;51.202;6.344;2022-09-03T08:58:30;21.30;84.10
9375;DHT22;4727;51.202;6.344;2022-09-03T09:01:15;21.30;67.10
9375;DHT22;4727;51.202;6.344;2022-09-03T09:14:59;21.70;46.90
9375;DHT22;4727;51.202;6.344;2022-09-03T09:20:39;21.90;83.60
9375;DHT22;4727;51.202;6.344;2022-09-03T09:23:19;22.00;38.40
9375;DHT22;4727;51.202;6.344;2022-09-03T09:25:49;22.00;41.20
9375;DHT22;4727;51.202;6.344;2022-09-03T09:28:22;22.00;51.10
9375;DHT22;4727;51.202;6.344;2022-09-03T09:30:51;22.10;96.70
9375;DHT22;4727;51.202;6.344;2022-09-03T09:33:18;22.10;31.90
9375;DHT22;4727;51.202;6.344;2022-09-03T09:35:45;22.20;97.60
9375;DHT22;4727;51.202;6.344;2022-09-03T09:38:12;22.20;91.30
9375;DHT22;4727;51.202;6.344;2022-09-03T09:40:43;22.30;96.80
9375;DHT22;4727;51.202;6.344;2022-09-03T09:43:17;22.40;95.10
9375;DHT22;4727;51.202;6.344;2022-09-03T09:45:47;22.50;42.10
9375;DHT22;4727;51.202;6.344;2022-09-03T09:48:27;22.50;34.00
9375;DHT22;4727;51.202;6.344;2022-09-03T09:51:09;22.60;99.90
9375;DHT22;4727;51.202;6.344;2022-09-03T09:53:35;22.60;99.90
9375;DHT22;4727;51.202;6.344;2022-09-03T09:56:01;22.60;53.30
9375;DHT22;4727;51.202;6.344;2022-09-03T09:58:28;22.70;66.90
9375;DHT22;4727;51.202;6.344;2022-09-03T10:01:02;22.80;86.10
9375;DHT22;4727;51.202;6.344;2022-09-03T10:03:33;22.90;84.10
9375;DHT22;4727;51.202;6.344;2022-09-03T10:06:05;23.00;98.20
9375;DHT22;4727;51.202;6.344;2022-09-03T10:08:50;23.10;94.80
9375;DHT22;4727;51.202;6.344;2022-09-03T10:11:17;23.10;85.30
9375;DHT22;4727;51.202;6.344;2022-09-03T10:13:46;23.20;94.40
9375;DHT22;4727;51.202;6.344;2022-09-03T10:16:28;23.30;96.00
9375;DHT22;4727;51.202;6.344;2022-09-03T10:19:08;23.40;99.90
9375;DHT22;4727;51.202;6.344;2022-09-03T10:24:24;23.40;99.90
9375;DHT22;4727;51.202;6.344;2022-09-03T10:26:51;23.50;99.90
9375;DHT22;4727;51.202;6.344;2022-09-03T10:29:22;23.50;99.90
9375;DHT22;4727;51.202;6.344;2022-09-03T10:35:17;23.60;99.90
9375;DHT22;4727;51.202;6.344;2022-09-03T10:37:42;23.60;99.90
9375;DHT22;4727;51.202;6.344;2022-09-03T10:40:29;23.70;99.90
9375;DHT22;4727;51.202;6.344;2022-09-03T10:43:18;23.80;85.20
9375;DHT22;4727;51.202;6.344;2022-09-03T10:51:18;24.00;99.90
9375;DHT22;4727;51.202;6.344;2022-09-03T10:59:42;24.20;99.90
9375;DHT22;4727;51.202;6.344;2022-09-03T11:05:29;24.50;99.90
9375;DHT22;4727;51.202;6.344;2022-09-03T11:08:00;24.50;99.90
9375;DHT22;4727;51.202;6.344;2022-09-03T11:10:32;24.50;99.90
9375;DHT22;4727;51.202;6.344;2022-09-03T11:13:11;24.50;99.90
9375;DHT22;4727;51.202;6.344;2022-09-03T11:18:48;24.60;99.90
9375;DHT22;4727;51.202;6.344;2022-09-03T11:21:19;24.60;99.90
9375;DHT22;4727;51.202;6.344;2022-09-03T11:23:48;24.70;99.90
9375;DHT22;4727;51.202;6.344;2022-09-03T11:26:18;24.70;99.90
9375;DHT22;4727;51.202;6.344;2022-09-03T11:34:24;25.00;99.90
9375;DHT22;4727;51.202;6.344;2022-09-03T11:37:02;25.00;99.90
9375;DHT22;4727;51.202;6.344;2022-09-03T11:42:21;25.10;99.90
9375;DHT22;4727;51.202;6.344;2022-09-03T11:44:50;25.20;99.90
9375;DHT22;4727;51.202;6.344;2022-09-03T11:49:47;25.30;99.90
9375;DHT22;4727;51.202;6.344;2022-09-03T11:52:28;25.30;99.90
9375;DHT22;4727;51.202;6.344;2022-09-03T11:54:54;25.30;99.90
9375;DHT22;4727;51.202;6.344;2022-09-03T11:57:30;25.40;99.90
9375;DHT22;4727;51.202;6.344;2022-09-03T12:00:08;25.40;99.90
9375;DHT22;4727;51.202;6.344;2022-09-03T12:02:36;25.50;99.90
9375;DHT22;4727;51.202;6.344;2022-09-03T12:05:17;25.50;99.90
9375;DHT22;4727;51.202;6.344;2022-09-03T12:11:21;25.60;99.90
9375;DHT22;4727;51.202;6.344;2022-09-03T12:19:41;25.90;99.90
9375;DHT22;4727;51.202;6.344;2022-09-03T12:22:13;25.90;99.90
9375;DHT22;4727;51.202;6.344;2022-09-03T12:24:40;25.90;99.90
9375;DHT22;4727;51.202;6.344;2022-09-03T12:27:14;26.10;99.90
9375;DHT22;4727;51.202;6.344;2022-09-03T12:29:59;26.10;99.90
9375;DHT22;4727;51.202;6.344;2022-09-03T12:32:33;26.20;99.90
9375;DHT22;4727;51.202;6.344;2022-09-03T12:35:12;26.30;99.90
9375;DHT22;4727;51.202;6.344;2022-09-03T12:37:38;26.30;99.90
9375;DHT22;4727;51.202;6.344;2022-09-03T12:40:19;26.30;99.90
9375;DHT22;4727;51.202;6.344;2022-09-03T12:42:46;26.40;99.90
9375;DHT22;4727;51.202;6.344;2022-09-03T12:45:12;26.60;99.90
9375;DHT22;4727;51.202;6.344;2022-09-03T12:47:41;26.70;99.90
9375;DHT22;4727;51.202;6.344;2022-09-03T12:50:21;27.00;99.90
9375;DHT22;4727;51.202;6.344;2022-09-03T12:52:57;27.10;99.90
9375;DHT22;4727;51.202;6.344;2022-09-03T12:55:34;27.30;99.90
9375;DHT22;4727;51.202;6.344;2022-09-03T12:58:18;27.60;99.90
9375;DHT22;4727;51.202;6.344;2022-09-03T13:00:52;27.90;99.90
9375;DHT22;4727;51.202;6.344;2022-09-03T13:03:21;28.20;99.90
9375;DHT22;4727;51.202;6.344;2022-09-03T13:05:54;28.40;99.90
9375;DHT22;4727;51.202;6.344;2022-09-03T13:08:30;28.50;99.90
9375;DHT22;4727;51.202;6.344;2022-09-03T13:10:58;28.60;99.90
9375;DHT22;4727;51.202;6.344;2022-09-03T13:13:32;28.80;99.90
9375;DHT22;4727;51.202;6.344;2022-09-03T13:16:13;28.90;99.90
9375;DHT22;4727;51.202;6.344;2022-09-03T13:21:49;29.20;99.90
9375;DHT22;4727;51.202;6.344;2022-09-03T13:25:00;29.30;99.90
9375;DHT22;4727;51.202;6.344;2022-09-03T13:30:20;29.70;99.90
9375;DHT22;4727;51.202;6.344;2022-09-03T13:32:57;29.90;99.90
9375;DHT22;4727;51.202;6.344;2022-09-03T13:35:29;29.90;99.90
9375;DHT22;4727;51.202;6.344;2022-09-03T13:38:14;29.80;99.90
9375;DHT22;4727;51.202;6.344;2022-09-03T13:40:50;30.00;99.90
9375;DHT22;4727;51.202;6.344;2022-09-03T13:43:39;30.10;99.90
9375;DHT22;4727;51.202;6.344;2022-09-03T13:46:22;29.80;99.90
9375;DHT22;4727;51.202;6.344;2022-09-03T13:48:51;30.10;99.90
9375;DHT22;4727;51.202;6.344;2022-09-03T13:51:57;30.10;99.90
9375;DHT22;4727;51.202;6.344;2022-09-03T13:54:33;29.90;99.90
9375;DHT22;4727;51.202;6.344;2022-09-03T13:57:18;30.20;99.90
9375;DHT22;4727;51.202;6.344;2022-09-03T14:00:10;30.30;99.90
9375;DHT22;4727;51.202;6.344;2022-09-03T14:02:52;30.40;99.90
9375;DHT22;4727;51.202;6.344;2022-09-03T14:06:00;30.50;99.90
9375;DHT22;4727;51.202;6.344;2022-09-03T14:08:32;30.40;99.90
9375;DHT22;4727;51.202;6.344;2022-09-03T14:16:38;30.20;99.90
9375;DHT22;4727;51.202;6.344;2022-09-03T14:19:16;29.90;99.90
9375;DHT22;4727;51.202;6.344;2022-09-03T14:21:51;29.70;99.90
9375;DHT22;4727;51.202;6.344;2022-09-03T14:24:52;30.00;99.90
9375;DHT22;4727;51.202;6.344;2022-09-03T14:27:28;30.50;99.90
9375;DHT22;4727;51.202;6.344;2022-09-03T14:30:04;30.80;99.90
9375;DHT22;4727;51.202;6.344;2022-09-03T14:32:43;31.00;99.90
9375;DHT22;4727;51.202;6.344;2022-09-03T14:40:45;31.20;99.90
9375;DHT22;4727;51.202;6.344;2022-09-03T14:48:59;30.20;99.90
9375;DHT22;4727;51.202;6.344;2022-09-03T15:05:10;31.40;99.90
9375;DHT22;4727;51.202;6.344;2022-09-03T15:07:52;31.30;99.90
9375;DHT22;4727;51.202;6.344;2022-09-03T15:10:41;31.20;99.90
9375;DHT22;4727;51.202;6.344;2022-09-03T15:13:18;31.40;99.90
9375;DHT22;4727;51.202;6.344;2022-09-03T15:21:57;31.40;99.90
9375;DHT22;4727;51.202;6.344;2022-09-03T15:24:49;31.30;99.90
9375;DHT22;4727;51.202;6.344;2022-09-03T15:30:10;31.20;99.90
9375;DHT22;4727;51.202;6.344;2022-09-03T15:39:02;31.00;99.90
9375;DHT22;4727;51.202;6.344;2022-09-03T15:44:10;31.10;99.90
9375;DHT22;4727;51.202;6.344;2022-09-03T15:46:59;31.20;99.90
9375;DHT22;4727;51.202;6.344;2022-09-03T15:57:23;30.90;99.90
9375;DHT22;4727;51.202;6.344;2022-09-03T16:00:33;30.90;99.90
9375;DHT22;4727;51.202;6.344;2022-09-03T16:05:18;30.90;99.90
9375;DHT22;4727;51.202;6.344;2022-09-03T16:08:21;30.90;99.90
9375;DHT22;4727;51.202;6.344;2022-09-03T16:10:56;30.70;99.90
9375;DHT22;4727;51.202;6.344;2022-09-03T16:16:30;30.50;99.90
9375;DHT22;4727;51.202;6.344;2022-09-03T16:19:16;30.50;99.90
9375;DHT22;4727;51.202;6.344;2022-09-03T16:27:24;30.20;99.90
9375;DHT22;4727;51.202;6.344;2022-09-03T16:33:04;29.40;99.90
9375;DHT22;4727;51.202;6.344;2022-09-03T16:46:53;28.30;99.90
9375;DHT22;4727;51.202;6.344;2022-09-03T16:49:33;28.40;99.90
9375;DHT22;4727;51.202;6.344;2022-09-03T16:52:27;28.40;99.90
9375;DHT22;4727;51.202;6.344;2022-09-03T16:55:30;28.50;99.90
9375;DHT22;4727;51.202;6.344;2022-09-03T17:01:04;28.30;99.90
9375;DHT22;4727;51.202;6.344;2022-09-03T17:03:42;28.40;99.90
9375;DHT22;4727;51.202;6.344;2022-09-03T17:26:33;27.90;99.90
9375;DHT22;4727;51.202;6.344;2022-09-03T17:33:05;27.40;99.90
9375;DHT22;4727;51.202;6.344;2022-09-03T17:35:17;27.30;99.90
9375;DHT22;4727;51.202;6.344;2022-09-03T17:43:22;27.00;99.90
9375;DHT22;4727;51.202;6.344;2022-09-03T17:48:51;26.70;99.90
9375;DHT22;4727;51.202;6.344;2022-09-03T17:53:51;26.50;99.90
9375;DHT22;4727;51.202;6.344;2022-09-03T17:56:27;26.40;99.90
9375;DHT22;4727;51.202;6.344;2022-09-03T17:59:17;26.20;99.90
9375;DHT22;4727;51.202;6.344;2022-09-03T18:02:38;26.10;99.90
9375;DHT22;4727;51.202;6.344;2022-09-03T18:04:47;26.10;99.90
9375;DHT22;4727;51.202;6.344;2022-09-03T18:07:29;26.00;99.90
9375;DHT22;4727;51.202;6.344;2022-09-03T18:10:15;25.90;99.90
9375;DHT22;4727;51.202;6.344;2022-09-03T18:16:05;25.50;99.90
9375;DHT22;4727;51.202;6.344;2022-09-03T18:18:33;25.40;99.90
9375;DHT22;4727;51.202;6.344;2022-09-03T18:21:04;25.50;99.90
9375;DHT22;4727;51.202;6.344;2022-09-03T18:27:02;25.50;99.90
9375;DHT22;4727;51.202;6.344;2022-09-03T18:30:09;25.40;99.90
9375;DHT22;4727;51.202;6.344;2022-09-03T18:32:55;25.10;99.90
9375;DHT22;4727;51.202;6.344;2022-09-03T18:35:44;24.90;99.90
9375;DHT22;4727;51.202;6.344;2022-09-03T18:38:34;24.70;99.90
9375;DHT22;4727;51.202;6.344;2022-09-03T18:50:42;24.70;99.90
9375;DHT22;4727;51.202;6.344;2022-09-03T19:08:38;24.30;99.90
9375;DHT22;4727;51.202;6.344;2022-09-03T19:11:29;24.30;99.90
9375;DHT22;4727;51.202;6.344;2022-09-03T19:20:28;24.20;99.90
9375;DHT22;4727;51.202;6.344;2022-09-03T19:23:13;24.20;99.90
9375;DHT22;4727;51.202;6.344;2022-09-03T19:26:05;24.10;99.90
9375;DHT22;4727;51.202;6.344;2022-09-03T19:29:01;24.10;99.90
9375;DHT22;4727;51.202;6.344;2022-09-03T19:31:56;24.00;99.90
9375;DHT22;4727;51.202;6.344;2022-09-03T19:35:07;24.00;99.90
9375;DHT22;4727;51.202;6.344;2022-09-03T19:38:15;24.00;99.90
9375;DHT22;4727;51.202;6.344;2022-09-03T19:41:19;23.90;99.90
9375;DHT22;4727;51.202;6.344;2022-09-03T19:47:24;23.80;99.90
9375;DHT22;4727;51.202;6.344;2022-09-03T19:50:20;23.70;99.90
9375;DHT22;4727;51.202;6.344;2022-09-03T19:53:14;23.70;99.90
9375;DHT22;4727;51.202;6.344;2022-09-03T19:56:04;23.60;99.90
9375;DHT22;4727;51.202;6.344;2022-09-03T19:58:58;23.50;99.90
9375;DHT22;4727;51.202;6.344;2022-09-03T20:01:45;23.50;99.90
9375;DHT22;4727;51.202;6.344;2022-09-03T20:05:05;23.40;99.90
9375;DHT22;4727;51.202;6.344;2022-09-03T20:07:49;23.30;99.90
9375;DHT22;4727;51.202;6.344;2022-09-03T20:10:35;23.20;99.90
9375;DHT22;4727;51.202;6.344;2022-09-03T20:21:31;23.10;99.90
9375;DHT22;4727;51.202;6.344;2022-09-03T20:37:36;22.60;99.90
9375;DHT22;4727;51.202;6.344;2022-09-03T20:51:54;22.30;99.90
9375;DHT22;4727;51.202;6.344;2022-09-03T20:54:28;22.30;99.90
9375;DHT22;4727;51.202;6.344;2022-09-03T21:05:42;22.00;99.90
9375;DHT22;4727;51.202;6.344;2022-09-03T21:13:38;22.00;99.90
9375;DHT22;4727;51.202;6.344;2022-09-03T21:16:26;21.90;99.90
9375;DHT22;4727;51.202;6.344;2022-09-03T21:24:13;21.70;99.90
9375;DHT22;4727;51.202;6.344;2022-09-03T21:26:44;21.70;99.90
9375;DHT22;4727;51.202;6.344;2022-09-03T21:29:30;21.50;99.90
9375;DHT22;4727;51.202;6.344;2022-09-03T21:37:19;21.50;99.90
9375;DHT22;4727;51.202;6.344;2022-09-03T21:39:52;21.50;99.90
9375;DHT22;4727;51.202;6.344;2022-09-03T21:42:29;21.50;99.90
9375;DHT22;4727;51.202;6.344;2022-09-03T21:45:03;21.50;99.90
9375;DHT22;4727;51.202;6.344;2022-09-03T21:47:36;21.50;99.90
9375;DHT22;4727;51.202;6.344;2022-09-03T21:55:27;21.20;99.90
9375;DHT22;4727;51.202;6.344;2022-09-03T22:00:43;21.20;99.90
9375;DHT22;4727;51.202;6.344;2022-09-03T22:03:10;21.10;99.90
9375;DHT22;4727;51.202;6.344;2022-09-03T22:05:53;21.10;99.90
9375;DHT22;4727;51.202;6.344;2022-09-03T22:08:33;21.10;99.90
9375;DHT22;4727;51.202;6.344;2022-09-03T22:14:12;21.10;99.90
9375;DHT22;4727;51.202;6.344;2022-09-03T22:17:09;21.00;99.90
9375;DHT22;4727;51.202;6.344;2022-09-03T22:19:39;21.10;99.90
9375;DHT22;4727;51.202;6.344;2022-09-03T22:22:24;21.00;99.90
9375;DHT22;4727;51.202;6.344;2022-09-03T22:24:59;21.00;99.90
9375;DHT22;4727;51.202;6.344;2022-09-03T22:30:14;20.90;99.90
9375;DHT22;4727;51.202;6.344;2022-09-03T22:33:10;20.90;99.90
9375;DHT22;4727;51.202;6.344;2022-09-03T22:41:41;20.70;99.90
9375;DHT22;4727;51.202;6.344;2022-09-03T22:49:50;20.60;99.90
9375;DHT22;4727;51.202;6.344;2022-09-03T22:52:32;20.60;99.90
9375;DHT22;4727;51.202;6.344;2022-09-03T22:55:21;20.50;99.90